sensor_id;sensor_type;location;lat;lon;timestamp;P1;durP1;ratioP1;P2;durP2;ratioP2
54193;SDS011;40102;50.906;6.972;2023-05-09T00:00:35;12.70;;;9.13;;
54193;SDS011;40102;50.906;6.972;2023-05-09T00:03:02;12.35;;;8.90;;
54193;SDS011;40102;50.906;6.972;2023-05-09T00:05:29;12.23;;;8.95;;
54193;SDS011;40102;50.906;6.972;2023-05-09T00:07:55;16.00;;;9.23;;
54193;SDS011;40102;50.906;6.972;2023-05-09T00:10:20;13.77;;;9.30;;
54193;SDS011;40102;50.906;6.972;2023-05-09T00:12:46;11.23;;;8.95;;
54193;SDS011;40102;50.906;6.972;2023-05-09T00:15:13;12.25;;;9.48;;
54193;SDS011;40102;50.906;6.972;2023-05-09T00:17:39;12.07;;;9.07;;
54193;SDS011;40102;50.906;6.972;2023-05-09T00:20:05;13.05;;;8.85;;
54193;SDS011;40102;50.906;6.972;2023-05-09T00:22:35;12.80;;;9.70;;
54193;SDS011;40102;50.906;6.972;2023-05-09T00:25:01;15.82;;;9.75;;
54193;SDS011;40102;50.906;6.972;2023-05-09T00:27:26;18.55;;;9.80;;
54193;SDS011;40102;50.906;6.972;2023-05-09T00:29:54;14.65;;;10.02;;
54193;SDS011;40102;50.906;6.972;2023-05-09T00:32:19;13.85;;;9.63;;
54193;SDS011;40102;50.906;6.972;2023-05-09T00:34:45;12.07;;;9.05;;
54193;SDS011;40102;50.906;6.972;2023-05-09T00:37:10;17.33;;;10.27;;
54193;SDS011;40102;50.906;6.972;2023-05-09T00:39:35;15.57;;;9.73;;
54193;SDS011;40102;50.906;6.972;2023-05-09T00:42:01;14.88;;;10.23;;
54193;SDS011;40102;50.906;6.972;2023-05-09T00:44:27;15.82;;;10.02;;
54193;SDS011;40102;50.906;6.972;2023-05-09T00:46:52;13.88;;;9.65;;
54193;SDS011;40102;50.906;6.972;2023-05-09T00:49:18;17.10;;;10.50;;
54193;SDS011;40102;50.906;6.972;2023-05-09T00:51:43;13.23;;;9.77;;
54193;SDS011;40102;50.906;6.972;2023-05-09T00:54:09;14.55;;;9.95;;
54193;SDS011;40102;50.906;6.972;2023-05-09T00:56:35;13.93;;;9.93;;
54193;SDS011;40102;50.906;6.972;2023-05-09T00:59:01;17.75;;;10.30;;
54193;SDS011;40102;50.906;6.972;2023-05-09T01:01:27;15.35;;;9.63;;
54193;SDS011;40102;50.906;6.972;2023-05-09T01:03:52;12.35;;;8.95;;
54193;SDS011;40102;50.906;6.972;2023-05-09T01:06:21;10.13;;;7.35;;
54193;SDS011;40102;50.906;6.972;2023-05-09T01:09:03;9.18;;;7.05;;
54193;SDS011;40102;50.906;6.972;2023-05-09T01:11:38;8.70;;;6.63;;
54193;SDS011;40102;50.906;6.972;2023-05-09T01:14:18;10.07;;;7.30;;
54193;SDS011;40102;50.906;6.972;2023-05-09T01:16:59;11.23;;;8.50;;
54193;SDS011;40102;50.906;6.972;2023-05-09T01:22:16;14.68;;;10.25;;
54193;SDS011;40102;50.906;6.972;2023-05-09T01:30:32;11.43;;;8.35;;
54193;SDS011;40102;50.906;6.972;2023-05-09T01:32:59;9.95;;;7.78;;
54193;SDS011;40102;50.906;6.972;2023-05-09T01:35:31;8.88;;;7.22;;
54193;SDS011;40102;50.906;6.972;2023-05-09T01:38:00;10.02;;;8.05;;
54193;SDS011;40102;50.906;6.972;2023-05-09T01:40:29;10.52;;;8.10;;
54193;SDS011;40102;50.906;6.972;2023-05-09T01:42:57;14.57;;;9.93;;
54193;SDS011;40102;50.906;6.972;2023-05-09T01:45:26;17.77;;;10.87;;
54193;SDS011;40102;50.906;6.972;2023-05-09T01:47:53;16.15;;;10.85;;
54193;SDS011;40102;50.906;6.972;2023-05-09T01:50:21;14.23;;;10.07;;
54193;SDS011;40102;50.906;6.972;2023-05-09T01:52:47;19.45;;;11.40;;
54193;SDS011;40102;50.906;6.972;2023-05-09T01:55:16;18.00;;;11.32;;
54193;SDS011;40102;50.906;6.972;2023-05-09T01:57:43;16.08;;;11.68;;
54193;SDS011;40102;50.906;6.972;2023-05-09T02:00:09;15.82;;;11.27;;
54193;SDS011;40102;50.906;6.972;2023-05-09T02:02:37;16.40;;;11.43;;
54193;SDS011;40102;50.906;6.972;2023-05-09T02:05:03;18.27;;;12.20;;
54193;SDS011;40102;50.906;6.972;2023-05-09T02:07:30;18.90;;;11.40;;
54193;SDS011;40102;50.906;6.972;2023-05-09T02:09:57;17.98;;;11.95;;
54193;SDS011;40102;50.906;6.972;2023-05-09T02:12:24;16.48;;;11.48;;
54193;SDS011;40102;50.906;6.972;2023-05-09T02:14:49;17.45;;;12.10;;
54193;SDS011;40102;50.906;6.972;2023-05-09T02:17:15;16.05;;;11.88;;
54193;SDS011;40102;50.906;6.972;2023-05-09T02:19:41;19.30;;;12.23;;
54193;SDS011;40102;50.906;6.972;2023-05-09T02:22:07;22.58;;;14.35;;
54193;SDS011;40102;50.906;6.972;2023-05-09T02:24:33;19.17;;;12.77;;
54193;SDS011;40102;50.906;6.972;2023-05-09T02:27:00;17.15;;;11.73;;
54193;SDS011;40102;50.906;6.972;2023-05-09T02:29:29;17.27;;;12.45;;
54193;SDS011;40102;50.906;6.972;2023-05-09T02:32:04;16.85;;;11.68;;
54193;SDS011;40102;50.906;6.972;2023-05-09T02:34:35;19.48;;;12.45;;
54193;SDS011;40102;50.906;6.972;2023-05-09T02:37:03;17.55;;;12.75;;
54193;SDS011;40102;50.906;6.972;2023-05-09T02:39:29;20.13;;;12.57;;
54193;SDS011;40102;50.906;6.972;2023-05-09T02:41:55;17.42;;;11.90;;
54193;SDS011;40102;50.906;6.972;2023-05-09T02:44:21;20.10;;;12.40;;
54193;SDS011;40102;50.906;6.972;2023-05-09T02:46:46;19.65;;;12.85;;
54193;SDS011;40102;50.906;6.972;2023-05-09T02:49:11;17.88;;;12.43;;
54193;SDS011;40102;50.906;6.972;2023-05-09T02:51:37;19.38;;;12.18;;
54193;SDS011;40102;50.906;6.972;2023-05-09T02:54:03;20.48;;;12.63;;
54193;SDS011;40102;50.906;6.972;2023-05-09T02:56:28;20.73;;;12.50;;
54193;SDS011;40102;50.906;6.972;2023-05-09T02:58:53;17.73;;;12.20;;
54193;SDS011;40102;50.906;6.972;2023-05-09T03:01:19;21.77;;;12.13;;
54193;SDS011;40102;50.906;6.972;2023-05-09T03:03:44;18.75;;;12.60;;
54193;SDS011;40102;50.906;6.972;2023-05-09T03:06:10;18.77;;;12.07;;
54193;SDS011;40102;50.906;6.972;2023-05-09T03:08:36;19.48;;;12.60;;
54193;SDS011;40102;50.906;6.972;2023-05-09T03:11:01;19.65;;;12.65;;
54193;SDS011;40102;50.906;6.972;2023-05-09T03:13:26;20.65;;;13.27;;
54193;SDS011;40102;50.906;6.972;2023-05-09T03:15:51;18.40;;;12.70;;
54193;SDS011;40102;50.906;6.972;2023-05-09T03:18:17;20.88;;;13.57;;
54193;SDS011;40102;50.906;6.972;2023-05-09T03:20:42;21.20;;;13.15;;
54193;SDS011;40102;50.906;6.972;2023-05-09T03:23:08;20.85;;;12.68;;
54193;SDS011;40102;50.906;6.972;2023-05-09T03:25:34;22.75;;;13.32;;
54193;SDS011;40102;50.906;6.972;2023-05-09T03:27:59;21.25;;;12.45;;
54193;SDS011;40102;50.906;6.972;2023-05-09T03:30:24;22.48;;;13.35;;
54193;SDS011;40102;50.906;6.972;2023-05-09T03:32:51;20.50;;;13.20;;
54193;SDS011;40102;50.906;6.972;2023-05-09T03:35:16;21.65;;;12.90;;
54193;SDS011;40102;50.906;6.972;2023-05-09T03:37:41;19.30;;;13.35;;
54193;SDS011;40102;50.906;6.972;2023-05-09T03:40:07;19.80;;;13.45;;
54193;SDS011;40102;50.906;6.972;2023-05-09T03:42:32;23.05;;;13.63;;
54193;SDS011;40102;50.906;6.972;2023-05-09T03:44:58;19.15;;;12.60;;
54193;SDS011;40102;50.906;6.972;2023-05-09T03:47:23;18.15;;;12.30;;
54193;SDS011;40102;50.906;6.972;2023-05-09T03:49:51;19.38;;;12.65;;
54193;SDS011;40102;50.906;6.972;2023-05-09T03:52:17;18.63;;;12.82;;
54193;SDS011;40102;50.906;6.972;2023-05-09T03:54:42;21.35;;;11.90;;
54193;SDS011;40102;50.906;6.972;2023-05-09T03:57:08;23.55;;;13.13;;
54193;SDS011;40102;50.906;6.972;2023-05-09T03:59:33;18.52;;;12.10;;
54193;SDS011;40102;50.906;6.972;2023-05-09T04:01:58;19.73;;;12.93;;
54193;SDS011;40102;50.906;6.972;2023-05-09T04:04:24;19.73;;;14.05;;
54193;SDS011;40102;50.906;6.972;2023-05-09T04:06:49;19.45;;;13.45;;
54193;SDS011;40102;50.906;6.972;2023-05-09T04:09:15;18.85;;;12.68;;
54193;SDS011;40102;50.906;6.972;2023-05-09T04:11:40;19.63;;;12.88;;
54193;SDS011;40102;50.906;6.972;2023-05-09T04:14:05;18.67;;;12.50;;
54193;SDS011;40102;50.906;6.972;2023-05-09T04:16:31;20.35;;;13.15;;
54193;SDS011;40102;50.906;6.972;2023-05-09T04:18:57;18.40;;;12.15;;
54193;SDS011;40102;50.906;6.972;2023-05-09T04:21:22;18.10;;;11.98;;
54193;SDS011;40102;50.906;6.972;2023-05-09T04:23:47;17.48;;;11.80;;
54193;SDS011;40102;50.906;6.972;2023-05-09T04:26:13;18.00;;;12.35;;
54193;SDS011;40102;50.906;6.972;2023-05-09T04:28:39;19.65;;;12.80;;
54193;SDS011;40102;50.906;6.972;2023-05-09T04:31:05;18.65;;;12.30;;
54193;SDS011;40102;50.906;6.972;2023-05-09T04:33:30;17.48;;;12.85;;
54193;SDS011;40102;50.906;6.972;2023-05-09T04:35:55;18.52;;;11.95;;
54193;SDS011;40102;50.906;6.972;2023-05-09T04:38:21;18.25;;;12.93;;
54193;SDS011;40102;50.906;6.972;2023-05-09T04:40:47;18.50;;;12.02;;
54193;SDS011;40102;50.906;6.972;2023-05-09T04:43:13;17.80;;;13.15;;
54193;SDS011;40102;50.906;6.972;2023-05-09T04:45:38;17.73;;;11.70;;
54193;SDS011;40102;50.906;6.972;2023-05-09T04:48:03;18.58;;;12.82;;
54193;SDS011;40102;50.906;6.972;2023-05-09T04:50:29;18.75;;;12.25;;
54193;SDS011;40102;50.906;6.972;2023-05-09T04:52:54;22.45;;;12.45;;
54193;SDS011;40102;50.906;6.972;2023-05-09T04:55:19;16.85;;;11.50;;
54193;SDS011;40102;50.906;6.972;2023-05-09T04:57:45;18.65;;;12.13;;
54193;SDS011;40102;50.906;6.972;2023-05-09T05:00:10;19.15;;;12.63;;
54193;SDS011;40102;50.906;6.972;2023-05-09T05:02:36;22.40;;;12.77;;
54193;SDS011;40102;50.906;6.972;2023-05-09T05:05:02;20.60;;;12.48;;
54193;SDS011;40102;50.906;6.972;2023-05-09T05:07:28;18.90;;;12.43;;
54193;SDS011;40102;50.906;6.972;2023-05-09T05:09:53;21.23;;;13.65;;
54193;SDS011;40102;50.906;6.972;2023-05-09T05:12:19;19.95;;;13.10;;
54193;SDS011;40102;50.906;6.972;2023-05-09T05:14:45;19.92;;;12.95;;
54193;SDS011;40102;50.906;6.972;2023-05-09T05:17:11;20.65;;;13.13;;
54193;SDS011;40102;50.906;6.972;2023-05-09T05:19:36;19.75;;;12.93;;
54193;SDS011;40102;50.906;6.972;2023-05-09T05:22:01;20.58;;;13.63;;
54193;SDS011;40102;50.906;6.972;2023-05-09T05:24:27;19.42;;;12.88;;
54193;SDS011;40102;50.906;6.972;2023-05-09T05:26:52;18.55;;;12.98;;
54193;SDS011;40102;50.906;6.972;2023-05-09T05:29:17;20.88;;;12.95;;
54193;SDS011;40102;50.906;6.972;2023-05-09T05:31:43;19.88;;;12.95;;
54193;SDS011;40102;50.906;6.972;2023-05-09T05:34:08;19.27;;;13.07;;
54193;SDS011;40102;50.906;6.972;2023-05-09T05:36:33;18.17;;;12.85;;
54193;SDS011;40102;50.906;6.972;2023-05-09T05:38:58;20.83;;;12.68;;
54193;SDS011;40102;50.906;6.972;2023-05-09T05:41:24;23.60;;;13.73;;
54193;SDS011;40102;50.906;6.972;2023-05-09T05:43:51;21.52;;;12.82;;
54193;SDS011;40102;50.906;6.972;2023-05-09T05:46:16;18.98;;;12.80;;
54193;SDS011;40102;50.906;6.972;2023-05-09T05:48:41;18.48;;;13.30;;
54193;SDS011;40102;50.906;6.972;2023-05-09T05:51:06;18.73;;;12.85;;
54193;SDS011;40102;50.906;6.972;2023-05-09T05:53:32;19.15;;;12.70;;
54193;SDS011;40102;50.906;6.972;2023-05-09T05:55:57;20.90;;;13.43;;
54193;SDS011;40102;50.906;6.972;2023-05-09T05:58:22;23.67;;;13.30;;
54193;SDS011;40102;50.906;6.972;2023-05-09T06:00:51;19.20;;;12.98;;
54193;SDS011;40102;50.906;6.972;2023-05-09T06:03:17;20.15;;;13.25;;
54193;SDS011;40102;50.906;6.972;2023-05-09T06:05:42;22.08;;;13.82;;
54193;SDS011;40102;50.906;6.972;2023-05-09T06:08:10;23.05;;;13.27;;
54193;SDS011;40102;50.906;6.972;2023-05-09T06:10:35;21.45;;;13.38;;
54193;SDS011;40102;50.906;6.972;2023-05-09T06:13:01;27.38;;;13.23;;
54193;SDS011;40102;50.906;6.972;2023-05-09T06:15:26;19.70;;;13.15;;
54193;SDS011;40102;50.906;6.972;2023-05-09T06:17:52;20.90;;;13.52;;
54193;SDS011;40102;50.906;6.972;2023-05-09T06:20:18;20.02;;;13.18;;
54193;SDS011;40102;50.906;6.972;2023-05-09T06:22:43;18.83;;;13.05;;
54193;SDS011;40102;50.906;6.972;2023-05-09T06:25:08;19.80;;;12.85;;
54193;SDS011;40102;50.906;6.972;2023-05-09T06:27:34;24.50;;;13.18;;
54193;SDS011;40102;50.906;6.972;2023-05-09T06:29:59;20.77;;;13.60;;
54193;SDS011;40102;50.906;6.972;2023-05-09T06:32:24;19.95;;;12.25;;
54193;SDS011;40102;50.906;6.972;2023-05-09T06:34:50;19.63;;;13.20;;
54193;SDS011;40102;50.906;6.972;2023-05-09T06:37:16;18.67;;;12.40;;
54193;SDS011;40102;50.906;6.972;2023-05-09T06:39:41;18.58;;;12.85;;
54193;SDS011;40102;50.906;6.972;2023-05-09T06:42:07;17.98;;;12.52;;
54193;SDS011;40102;50.906;6.972;2023-05-09T06:44:33;16.95;;;12.02;;
54193;SDS011;40102;50.906;6.972;2023-05-09T06:46:58;18.88;;;12.43;;
54193;SDS011;40102;50.906;6.972;2023-05-09T06:49:25;19.63;;;11.63;;
54193;SDS011;40102;50.906;6.972;2023-05-09T06:51:50;16.30;;;11.32;;
54193;SDS011;40102;50.906;6.972;2023-05-09T06:54:16;16.10;;;10.48;;
54193;SDS011;40102;50.906;6.972;2023-05-09T06:56:41;14.77;;;9.73;;
54193;SDS011;40102;50.906;6.972;2023-05-09T06:59:06;11.82;;;9.00;;
54193;SDS011;40102;50.906;6.972;2023-05-09T07:01:32;17.60;;;7.40;;
54193;SDS011;40102;50.906;6.972;2023-05-09T07:03:57;6.45;;;5.10;;
54193;SDS011;40102;50.906;6.972;2023-05-09T07:06:23;6.40;;;5.00;;
54193;SDS011;40102;50.906;6.972;2023-05-09T07:08:48;7.10;;;4.88;;
54193;SDS011;40102;50.906;6.972;2023-05-09T07:11:14;7.55;;;4.93;;
54193;SDS011;40102;50.906;6.972;2023-05-09T07:13:40;8.43;;;4.82;;
54193;SDS011;40102;50.906;6.972;2023-05-09T07:16:05;5.78;;;4.35;;
54193;SDS011;40102;50.906;6.972;2023-05-09T07:18:31;6.32;;;4.80;;
54193;SDS011;40102;50.906;6.972;2023-05-09T07:20:56;8.40;;;4.97;;
54193;SDS011;40102;50.906;6.972;2023-05-09T07:23:22;6.90;;;4.10;;
54193;SDS011;40102;50.906;6.972;2023-05-09T07:25:47;5.00;;;3.85;;
54193;SDS011;40102;50.906;6.972;2023-05-09T07:28:12;4.85;;;4.15;;
54193;SDS011;40102;50.906;6.972;2023-05-09T07:30:38;7.25;;;4.47;;
54193;SDS011;40102;50.906;6.972;2023-05-09T07:33:03;8.20;;;4.82;;
54193;SDS011;40102;50.906;6.972;2023-05-09T07:35:29;6.15;;;4.63;;
54193;SDS011;40102;50.906;6.972;2023-05-09T07:37:54;7.30;;;4.47;;
54193;SDS011;40102;50.906;6.972;2023-05-09T07:40:19;5.28;;;4.15;;
54193;SDS011;40102;50.906;6.972;2023-05-09T07:42:44;5.95;;;4.70;;
54193;SDS011;40102;50.906;6.972;2023-05-09T07:45:13;6.10;;;3.80;;
54193;SDS011;40102;50.906;6.972;2023-05-09T07:47:42;5.93;;;3.90;;
54193;SDS011;40102;50.906;6.972;2023-05-09T07:50:07;7.10;;;4.00;;
54193;SDS011;40102;50.906;6.972;2023-05-09T07:52:33;5.60;;;3.65;;
54193;SDS011;40102;50.906;6.972;2023-05-09T07:54:58;5.85;;;3.55;;
54193;SDS011;40102;50.906;6.972;2023-05-09T07:57:23;6.28;;;3.70;;
54193;SDS011;40102;50.906;6.972;2023-05-09T07:59:48;4.65;;;3.38;;
54193;SDS011;40102;50.906;6.972;2023-05-09T08:02:14;3.38;;;2.63;;
54193;SDS011;40102;50.906;6.972;2023-05-09T08:04:39;3.35;;;2.45;;
54193;SDS011;40102;50.906;6.972;2023-05-09T08:07:05;2.15;;;1.83;;
54193;SDS011;40102;50.906;6.972;2023-05-09T08:09:31;4.50;;;2.20;;
54193;SDS011;40102;50.906;6.972;2023-05-09T08:11:56;3.03;;;1.85;;
54193;SDS011;40102;50.906;6.972;2023-05-09T08:14:22;2.08;;;1.80;;
54193;SDS011;40102;50.906;6.972;2023-05-09T08:16:48;3.92;;;2.22;;
54193;SDS011;40102;50.906;6.972;2023-05-09T08:19:13;3.88;;;2.10;;
54193;SDS011;40102;50.906;6.972;2023-05-09T08:21:39;3.13;;;2.00;;
54193;SDS011;40102;50.906;6.972;2023-05-09T08:24:04;2.72;;;1.80;;
54193;SDS011;40102;50.906;6.972;2023-05-09T08:26:32;2.50;;;1.80;;
54193;SDS011;40102;50.906;6.972;2023-05-09T08:28:59;1.60;;;1.50;;
54193;SDS011;40102;50.906;6.972;2023-05-09T08:31:25;2.60;;;1.80;;
54193;SDS011;40102;50.906;6.972;2023-05-09T08:33:53;2.08;;;1.83;;
54193;SDS011;40102;50.906;6.972;2023-05-09T08:36:18;2.80;;;1.88;;
54193;SDS011;40102;50.906;6.972;2023-05-09T08:38:44;2.90;;;1.60;;
54193;SDS011;40102;50.906;6.972;2023-05-09T08:41:09;2.75;;;1.90;;
54193;SDS011;40102;50.906;6.972;2023-05-09T08:43:35;2.78;;;1.70;;
54193;SDS011;40102;50.906;6.972;2023-05-09T08:46:08;1.70;;;1.50;;
54193;SDS011;40102;50.906;6.972;2023-05-09T08:48:35;2.92;;;1.50;;
54193;SDS011;40102;50.906;6.972;2023-05-09T08:51:04;2.15;;;1.40;;
54193;SDS011;40102;50.906;6.972;2023-05-09T08:53:30;1.83;;;1.33;;
54193;SDS011;40102;50.906;6.972;2023-05-09T08:55:57;2.80;;;1.85;;
54193;SDS011;40102;50.906;6.972;2023-05-09T08:58:24;4.72;;;1.83;;
54193;SDS011;40102;50.906;6.972;2023-05-09T09:00:49;2.58;;;1.70;;
54193;SDS011;40102;50.906;6.972;2023-05-09T09:03:15;2.83;;;1.55;;
54193;SDS011;40102;50.906;6.972;2023-05-09T09:05:41;3.15;;;1.70;;
54193;SDS011;40102;50.906;6.972;2023-05-09T09:08:08;2.83;;;1.88;;
54193;SDS011;40102;50.906;6.972;2023-05-09T09:10:35;2.35;;;1.65;;
54193;SDS011;40102;50.906;6.972;2023-05-09T09:13:04;15.38;;;1.92;;
54193;SDS011;40102;50.906;6.972;2023-05-09T09:15:33;3.45;;;1.60;;
54193;SDS011;40102;50.906;6.972;2023-05-09T09:18:03;3.20;;;1.63;;
54193;SDS011;40102;50.906;6.972;2023-05-09T09:20:31;1.83;;;1.50;;
54193;SDS011;40102;50.906;6.972;2023-05-09T09:22:59;4.05;;;1.50;;
54193;SDS011;40102;50.906;6.972;2023-05-09T09:25:28;2.45;;;1.40;;
54193;SDS011;40102;50.906;6.972;2023-05-09T09:27:53;2.38;;;1.45;;
54193;SDS011;40102;50.906;6.972;2023-05-09T09:30:19;3.95;;;1.50;;
54193;SDS011;40102;50.906;6.972;2023-05-09T09:32:47;2.85;;;1.80;;
54193;SDS011;40102;50.906;6.972;2023-05-09T09:35:15;2.72;;;1.60;;
54193;SDS011;40102;50.906;6.972;2023-05-09T09:37:41;3.13;;;1.52;;
54193;SDS011;40102;50.906;6.972;2023-05-09T09:40:08;3.33;;;1.65;;
54193;SDS011;40102;50.906;6.972;2023-05-09T09:42:41;4.55;;;1.70;;
54193;SDS011;40102;50.906;6.972;2023-05-09T09:45:11;4.30;;;1.70;;
54193;SDS011;40102;50.906;6.972;2023-05-09T09:47:39;4.70;;;1.60;;
54193;SDS011;40102;50.906;6.972;2023-05-09T09:50:14;2.88;;;1.40;;
54193;SDS011;40102;50.906;6.972;2023-05-09T09:52:50;2.92;;;1.60;;
54193;SDS011;40102;50.906;6.972;2023-05-09T09:55:17;3.50;;;1.63;;
54193;SDS011;40102;50.906;6.972;2023-05-09T09:57:44;6.10;;;1.50;;
54193;SDS011;40102;50.906;6.972;2023-05-09T10:00:17;1.50;;;1.30;;
54193;SDS011;40102;50.906;6.972;2023-05-09T10:02:52;6.38;;;1.60;;
54193;SDS011;40102;50.906;6.972;2023-05-09T10:05:19;5.93;;;2.58;;
54193;SDS011;40102;50.906;6.972;2023-05-09T10:07:49;3.63;;;1.70;;
54193;SDS011;40102;50.906;6.972;2023-05-09T10:10:16;3.10;;;1.52;;
54193;SDS011;40102;50.906;6.972;2023-05-09T10:12:42;2.05;;;1.48;;
54193;SDS011;40102;50.906;6.972;2023-05-09T10:15:08;2.72;;;1.52;;
54193;SDS011;40102;50.906;6.972;2023-05-09T10:17:36;3.45;;;1.50;;
54193;SDS011;40102;50.906;6.972;2023-05-09T10:20:03;4.00;;;1.67;;
54193;SDS011;40102;50.906;6.972;2023-05-09T10:22:31;2.70;;;1.40;;
54193;SDS011;40102;50.906;6.972;2023-05-09T10:27:29;3.00;;;1.63;;
54193;SDS011;40102;50.906;6.972;2023-05-09T10:30:01;2.75;;;1.92;;
54193;SDS011;40102;50.906;6.972;2023-05-09T10:32:36;4.10;;;1.40;;
54193;SDS011;40102;50.906;6.972;2023-05-09T10:35:06;2.00;;;1.77;;
54193;SDS011;40102;50.906;6.972;2023-05-09T10:37:35;4.15;;;1.67;;
54193;SDS011;40102;50.906;6.972;2023-05-09T10:40:02;2.55;;;1.85;;
54193;SDS011;40102;50.906;6.972;2023-05-09T10:42:29;2.47;;;1.60;;
54193;SDS011;40102;50.906;6.972;2023-05-09T10:44:55;2.10;;;1.70;;
54193;SDS011;40102;50.906;6.972;2023-05-09T10:47:20;2.53;;;1.67;;
54193;SDS011;40102;50.906;6.972;2023-05-09T10:49:47;2.08;;;1.65;;
54193;SDS011;40102;50.906;6.972;2023-05-09T10:52:13;4.28;;;1.90;;
54193;SDS011;40102;50.906;6.972;2023-05-09T10:54:39;3.10;;;2.00;;
54193;SDS011;40102;50.906;6.972;2023-05-09T10:57:05;1.67;;;1.45;;
54193;SDS011;40102;50.906;6.972;2023-05-09T10:59:37;3.15;;;1.60;;
54193;SDS011;40102;50.906;6.972;2023-05-09T11:02:05;2.00;;;1.60;;
54193;SDS011;40102;50.906;6.972;2023-05-09T11:04:36;4.60;;;2.03;;
54193;SDS011;40102;50.906;6.972;2023-05-09T11:07:03;1.58;;;1.48;;
54193;SDS011;40102;50.906;6.972;2023-05-09T11:09:46;2.78;;;1.73;;
54193;SDS011;40102;50.906;6.972;2023-05-09T11:12:15;1.92;;;1.60;;
54193;SDS011;40102;50.906;6.972;2023-05-09T11:22:19;2.25;;;1.70;;
54193;SDS011;40102;50.906;6.972;2023-05-09T11:24:47;3.90;;;1.85;;
54193;SDS011;40102;50.906;6.972;2023-05-09T11:27:22;3.88;;;1.85;;
54193;SDS011;40102;50.906;6.972;2023-05-09T11:29:49;3.97;;;1.77;;
54193;SDS011;40102;50.906;6.972;2023-05-09T11:32:26;6.03;;;1.65;;
54193;SDS011;40102;50.906;6.972;2023-05-09T11:37:51;1.77;;;1.55;;
54193;SDS011;40102;50.906;6.972;2023-05-09T11:40:27;3.13;;;1.65;;
54193;SDS011;40102;50.906;6.972;2023-05-09T11:42:54;3.30;;;1.63;;
54193;SDS011;40102;50.906;6.972;2023-05-09T11:45:21;3.75;;;1.98;;
54193;SDS011;40102;50.906;6.972;2023-05-09T11:47:48;2.28;;;1.70;;
54193;SDS011;40102;50.906;6.972;2023-05-09T11:50:15;3.85;;;1.75;;
54193;SDS011;40102;50.906;6.972;2023-05-09T11:52:43;2.60;;;1.60;;
54193;SDS011;40102;50.906;6.972;2023-05-09T11:55:09;3.65;;;1.60;;
54193;SDS011;40102;50.906;6.972;2023-05-09T11:57:39;2.33;;;1.75;;
54193;SDS011;40102;50.906;6.972;2023-05-09T12:00:05;2.13;;;1.67;;
54193;SDS011;40102;50.906;6.972;2023-05-09T12:02:33;2.08;;;1.60;;
54193;SDS011;40102;50.906;6.972;2023-05-09T12:05:09;1.80;;;1.30;;
54193;SDS011;40102;50.906;6.972;2023-05-09T12:07:37;1.80;;;1.50;;
54193;SDS011;40102;50.906;6.972;2023-05-09T12:10:06;2.08;;;1.88;;
54193;SDS011;40102;50.906;6.972;2023-05-09T12:12:33;2.28;;;1.88;;
54193;SDS011;40102;50.906;6.972;2023-05-09T12:15:05;2.40;;;1.70;;
54193;SDS011;40102;50.906;6.972;2023-05-09T12:17:31;2.42;;;1.80;;
54193;SDS011;40102;50.906;6.972;2023-05-09T12:19:58;2.92;;;2.00;;
54193;SDS011;40102;50.906;6.972;2023-05-09T12:22:24;2.33;;;2.13;;
54193;SDS011;40102;50.906;6.972;2023-05-09T12:24:49;4.22;;;2.10;;
54193;SDS011;40102;50.906;6.972;2023-05-09T12:27:15;4.00;;;2.25;;
54193;SDS011;40102;50.906;6.972;2023-05-09T12:29:42;2.05;;;1.80;;
54193;SDS011;40102;50.906;6.972;2023-05-09T12:32:10;3.85;;;2.00;;
54193;SDS011;40102;50.906;6.972;2023-05-09T12:34:36;3.15;;;1.80;;
54193;SDS011;40102;50.906;6.972;2023-05-09T12:37:02;4.05;;;2.30;;
54193;SDS011;40102;50.906;6.972;2023-05-09T12:39:27;4.20;;;1.80;;
54193;SDS011;40102;50.906;6.972;2023-05-09T12:41:53;2.78;;;2.10;;
54193;SDS011;40102;50.906;6.972;2023-05-09T12:46:51;5.03;;;2.13;;
54193;SDS011;40102;50.906;6.972;2023-05-09T12:49:20;2.53;;;1.67;;
54193;SDS011;40102;50.906;6.972;2023-05-09T12:51:47;2.28;;;1.55;;
54193;SDS011;40102;50.906;6.972;2023-05-09T12:54:18;2.30;;;1.52;;
54193;SDS011;40102;50.906;6.972;2023-05-09T12:56:54;2.63;;;1.50;;
54193;SDS011;40102;50.906;6.972;2023-05-09T12:59:29;2.22;;;1.58;;
54193;SDS011;40102;50.906;6.972;2023-05-09T13:01:56;3.05;;;1.58;;
54193;SDS011;40102;50.906;6.972;2023-05-09T13:04:23;2.30;;;1.58;;
54193;SDS011;40102;50.906;6.972;2023-05-09T13:06:58;3.13;;;1.73;;
54193;SDS011;40102;50.906;6.972;2023-05-09T13:09:24;3.72;;;1.65;;
54193;SDS011;40102;50.906;6.972;2023-05-09T13:11:53;2.47;;;1.65;;
54193;SDS011;40102;50.906;6.972;2023-05-09T13:14:19;3.05;;;1.85;;
54193;SDS011;40102;50.906;6.972;2023-05-09T13:16:45;1.92;;;1.40;;
54193;SDS011;40102;50.906;6.972;2023-05-09T13:19:11;4.60;;;1.70;;
54193;SDS011;40102;50.906;6.972;2023-05-09T13:21:37;2.22;;;1.35;;
54193;SDS011;40102;50.906;6.972;2023-05-09T13:24:03;2.63;;;1.45;;
54193;SDS011;40102;50.906;6.972;2023-05-09T13:26:30;1.60;;;1.50;;
54193;SDS011;40102;50.906;6.972;2023-05-09T13:28:56;3.15;;;1.50;;
54193;SDS011;40102;50.906;6.972;2023-05-09T13:31:24;2.22;;;1.55;;
54193;SDS011;40102;50.906;6.972;2023-05-09T13:33:49;1.70;;;1.50;;
54193;SDS011;40102;50.906;6.972;2023-05-09T13:36:15;2.28;;;1.50;;
54193;SDS011;40102;50.906;6.972;2023-05-09T13:38:43;2.53;;;1.70;;
54193;SDS011;40102;50.906;6.972;2023-05-09T13:41:09;2.55;;;1.50;;
54193;SDS011;40102;50.906;6.972;2023-05-09T13:43:35;4.82;;;1.50;;
54193;SDS011;40102;50.906;6.972;2023-05-09T13:46:01;1.70;;;1.45;;
54193;SDS011;40102;50.906;6.972;2023-05-09T13:48:27;1.92;;;1.50;;
54193;SDS011;40102;50.906;6.972;2023-05-09T13:50:53;2.63;;;1.65;;
54193;SDS011;40102;50.906;6.972;2023-05-09T13:53:18;1.70;;;1.33;;
54193;SDS011;40102;50.906;6.972;2023-05-09T13:55:44;2.28;;;1.27;;
54193;SDS011;40102;50.906;6.972;2023-05-09T13:58:10;2.45;;;1.40;;
54193;SDS011;40102;50.906;6.972;2023-05-09T14:00:36;2.38;;;1.40;;
54193;SDS011;40102;50.906;6.972;2023-05-09T14:03:01;2.22;;;1.20;;
54193;SDS011;40102;50.906;6.972;2023-05-09T14:05:27;6.32;;;1.60;;
54193;SDS011;40102;50.906;6.972;2023-05-09T14:07:55;3.67;;;1.83;;
54193;SDS011;40102;50.906;6.972;2023-05-09T14:10:20;6.35;;;1.30;;
54193;SDS011;40102;50.906;6.972;2023-05-09T14:12:46;2.58;;;1.63;;
54193;SDS011;40102;50.906;6.972;2023-05-09T14:15:11;2.45;;;1.40;;
54193;SDS011;40102;50.906;6.972;2023-05-09T14:17:37;1.60;;;1.40;;
54193;SDS011;40102;50.906;6.972;2023-05-09T14:20:04;1.77;;;1.65;;
54193;SDS011;40102;50.906;6.972;2023-05-09T14:22:30;2.10;;;1.38;;
54193;SDS011;40102;50.906;6.972;2023-05-09T14:24:56;2.97;;;2.35;;
54193;SDS011;40102;50.906;6.972;2023-05-09T14:27:22;5.53;;;1.55;;
54193;SDS011;40102;50.906;6.972;2023-05-09T14:29:47;3.53;;;1.60;;
54193;SDS011;40102;50.906;6.972;2023-05-09T14:32:13;3.60;;;1.50;;
54193;SDS011;40102;50.906;6.972;2023-05-09T14:34:39;3.47;;;1.83;;
54193;SDS011;40102;50.906;6.972;2023-05-09T14:37:04;4.53;;;2.10;;
54193;SDS011;40102;50.906;6.972;2023-05-09T14:39:37;4.18;;;1.85;;
54193;SDS011;40102;50.906;6.972;2023-05-09T14:42:03;4.60;;;2.20;;
54193;SDS011;40102;50.906;6.972;2023-05-09T14:44:29;4.78;;;2.10;;
54193;SDS011;40102;50.906;6.972;2023-05-09T14:46:55;2.97;;;2.13;;
54193;SDS011;40102;50.906;6.972;2023-05-09T14:49:20;4.50;;;2.58;;
54193;SDS011;40102;50.906;6.972;2023-05-09T14:51:45;2.63;;;2.15;;
54193;SDS011;40102;50.906;6.972;2023-05-09T14:54:11;4.80;;;2.60;;
54193;SDS011;40102;50.906;6.972;2023-05-09T14:56:36;4.78;;;2.60;;